Terminal Aerodrome Forecast
Issued by NWS

Home | Current Version | Previous Version | Text Only | Print | Product List | Glossary On
Versions: 1 2 3 4 5 6 7 8 9 10 11 12 13 14 15 16 17 18 19
000
FTUS44 KMAF 301700 RRA
TAFHOB
TAF
KHOB 301743Z 3018/3118 08012KT P6SM -RA OVC035
     FM302100 07010KT P6SM -RA OVC030
     FM310600 06007KT 3SM -RA BR SCT006 OVC010
      TEMPO 3110/3114 1SM -RA BR OVC004=

USA.gov is the U.S. government's official web portal to all federal, state and local government web resources and services.